Time;durP1;ratioP1;P1;durP2;ratioP2;P2;SDS_P1;SDS_P2;PMS_P1;PMS_P2;Temp;Humidity;BMP_temperature;BMP_pressure;BME280_temperature;BME280_humidity;BME280_pressure;Samples;Min_cycle;Max_cycle;Signal;HPM_P1;HPM_P2
2022/11/15 00:01:18;;;;;;;1.80;0.55;;;;;;;7.39;100.00;99751.97;5058573;28;20545;-61
2022/11/15 00:03:44;;;;;;;2.50;0.10;;;;;;;7.33;100.00;99744.78;5056593;28;20025;-61
2022/11/15 00:06:09;;;;;;;2.35;0.15;;;;;;;7.32;100.00;99743.97;5056570;28;20428;-61
2022/11/15 00:08:35;;;;;;;4.90;1.27;;;;;;;7.32;100.00;99733.44;5052090;28;20482;-61
2022/11/15 00:11:02;;;;;;;5.82;0.65;;;;;;;7.34;100.00;99731.41;5052317;28;21399;-61
2022/11/15 00:13:27;;;;;;;1.88;0.20;;;;;;;7.30;100.00;99731.97;5052386;28;20117;-61
2022/11/15 00:15:57;;;;;;;0.10;0.10;;;;;;;7.30;100.00;99734.63;5056963;28;20131;-62
2022/11/15 00:18:22;;;;;;;0.25;0.00;;;;;;;7.26;100.00;99725.47;5037868;28;20433;-61
2022/11/15 00:20:47;;;;;;;0.55;0.10;;;;;;;7.21;100.00;99726.84;5057124;28;20024;-61
2022/11/15 00:23:13;;;;;;;0.32;0.30;;;;;;;7.19;100.00;99717.47;5059264;28;20070;-62
2022/11/15 00:25:38;;;;;;;0.82;0.30;;;;;;;7.14;100.00;99715.41;5039804;28;20036;-60
2022/11/15 00:28:03;;;;;;;3.90;0.10;;;;;;;7.13;100.00;99710.31;5053884;28;20370;-60
2022/11/15 00:30:29;;;;;;;4.53;0.10;;;;;;;7.12;100.00;99706.84;5058623;28;20040;-62
2022/11/15 00:32:55;;;;;;;1.08;0.10;;;;;;;7.11;100.00;99707.88;5036222;28;20317;-61
2022/11/15 00:35:21;;;;;;;6.70;0.20;;;;;;;7.08;100.00;99699.53;5051691;28;20077;-60
2022/11/15 00:37:47;;;;;;;1.30;0.43;;;;;;;7.06;100.00;99696.25;5052699;28;20040;-62
2022/11/15 00:40:13;;;;;;;5.18;0.75;;;;;;;7.04;100.00;99688.53;5037272;28;20017;-62
2022/11/15 00:42:39;;;;;;;2.65;0.73;;;;;;;7.06;100.00;99686.53;5056299;28;20386;-61
2022/11/15 00:45:05;;;;;;;7.97;0.40;;;;;;;7.06;100.00;99690.97;5056034;28;20086;-63
2022/11/15 00:47:30;;;;;;;5.82;0.45;;;;;;;6.99;100.00;99685.63;5060857;28;20035;-62
2022/11/15 00:49:56;;;;;;;0.50;0.30;;;;;;;6.95;100.00;99682.56;5058286;28;20036;-61
2022/11/15 00:52:21;;;;;;;3.60;0.80;;;;;;;6.96;100.00;99678.09;5055392;28;20032;-61
2022/11/15 00:54:47;;;;;;;3.55;0.80;;;;;;;6.96;100.00;99675.47;5054407;28;20032;-62
2022/11/15 00:57:12;;;;;;;1.35;0.70;;;;;;;6.96;100.00;99667.56;5059033;28;20272;-61
2022/11/15 00:59:38;;;;;;;2.63;0.65;;;;;;;6.98;100.00;99652.38;5057745;28;20024;-60
2022/11/15 01:02:03;;;;;;;2.85;0.20;;;;;;;6.98;100.00;99652.38;5035164;28;20086;-60
2022/11/15 01:04:28;;;;;;;2.65;0.95;;;;;;;6.95;100.00;99647.50;5056544;28;20048;-62
2022/11/15 01:06:54;;;;;;;2.92;0.25;;;;;;;6.94;100.00;99646.69;5056684;28;20032;-60
2022/11/15 01:09:19;;;;;;;2.10;0.50;;;;;;;6.93;100.00;99639.75;5054996;28;20501;-58
2022/11/15 01:11:44;;;;;;;1.90;0.43;;;;;;;6.95;100.00;99637.75;5054786;28;20081;-62
2022/11/15 01:14:10;;;;;;;3.78;1.05;;;;;;;6.99;100.00;99628.44;5053071;28;20044;-60
2022/11/15 01:16:35;;;;;;;3.15;0.30;;;;;;;7.02;100.00;99627.25;5059279;28;20025;-62
2022/11/15 01:19:01;;;;;;;1.05;0.38;;;;;;;7.00;100.00;99618.75;5056449;28;20455;-62
2022/11/15 01:21:26;;;;;;;1.10;0.50;;;;;;;6.92;100.00;99619.69;5062911;28;20032;-59
2022/11/15 01:23:56;;;;;;;2.78;0.80;;;;;;;6.90;100.00;99608.53;5058109;28;20398;-61
2022/11/15 01:26:22;;;;;;;3.80;0.40;;;;;;;6.87;100.00;99611.53;5058997;28;20115;-61
2022/11/15 01:28:47;;;;;;;8.10;0.43;;;;;;;6.86;100.00;99604.63;5052189;28;20045;-62
2022/11/15 01:31:20;;;;;;;11.88;1.63;;;;;;;6.94;100.00;99601.03;5056349;28;20075;-62
2022/11/15 01:33:47;;;;;;;5.10;0.20;;;;;;;6.88;100.00;99591.25;5053146;28;20045;-62
2022/11/15 01:36:15;;;;;;;2.65;1.33;;;;;;;6.90;100.00;99592.72;5057592;28;20292;-61
2022/11/15 01:38:41;;;;;;;5.75;0.47;;;;;;;6.89;100.00;99579.72;5058384;28;20032;-62
2022/11/15 01:41:13;;;;;;;3.55;0.32;;;;;;;6.85;100.00;99589.81;5041290;28;20070;-60
2022/11/15 01:43:39;;;;;;;8.43;0.52;;;;;;;6.81;100.00;99582.47;5052068;28;20024;-62
2022/11/15 01:46:29;;;;;;;0.70;0.32;;;;;;;6.81;100.00;99571.94;5058322;28;20029;-60
2022/11/15 01:48:59;;;;;;;1.90;0.00;;;;;;;6.74;100.00;99577.16;5057228;28;20055;-61
2022/11/15 01:51:28;;;;;;;3.00;0.70;;;;;;;6.71;100.00;99565.19;5053932;28;20032;-62
2022/11/15 01:53:58;;;;;;;2.83;0.47;;;;;;;6.77;100.00;99561.78;5039873;28;20094;-61
2022/11/15 01:56:27;;;;;;;9.90;2.20;;;;;;;6.80;100.00;99551.88;5038219;28;20908;-62
2022/11/15 01:58:55;;;;;;;1.75;0.60;;;;;;;6.86;100.00;99548.47;5058879;28;20351;-61
2022/11/15 02:01:24;;;;;;;2.20;0.60;;;;;;;6.92;100.00;99537.19;5056085;28;20032;-62
2022/11/15 02:03:55;;;;;;;3.60;0.20;;;;;;;6.96;100.00;99533.97;5048768;28;20032;-62
2022/11/15 02:06:21;;;;;;;;;;;;;;;6.97;100.00;99525.06;5043620;28;20497;-62
2022/11/15 02:08:47;;;;;;;11.32;2.05;;;;;;;6.94;100.00;99529.88;5054868;28;19939;-59
2022/11/15 02:11:13;;;;;;;2.42;0.20;;;;;;;6.92;100.00;99513.47;5055926;28;20032;-62
2022/11/15 02:13:39;;;;;;;4.03;0.75;;;;;;;6.95;100.00;99499.91;5058979;28;20386;-59
2022/11/15 02:16:15;;;;;;;3.88;1.00;;;;;;;6.96;100.00;99493.63;5057667;28;20386;-59
2022/11/15 02:19:02;;;;;;;3.33;0.38;;;;;;;7.04;100.00;99488.19;5061430;28;20087;-58
2022/11/15 02:21:44;;;;;;;4.30;0.43;;;;;;;7.09;100.00;99480.53;5059070;28;20021;-59
2022/11/15 02:24:28;;;;;;;3.78;0.52;;;;;;;7.14;100.00;99483.41;5063697;28;20066;-62
2022/11/15 02:27:32;;;;;;;15.30;0.57;;;;;;;7.29;100.00;99475.38;5055215;28;20284;-63
2022/11/15 02:30:35;;;;;;;1.77;0.30;;;;;;;7.34;100.00;99464.25;5052215;28;20052;-63
2022/11/15 02:33:10;;;;;;;4.95;1.20;;;;;;;7.39;100.00;99451.31;5051615;28;20127;-63
2022/11/15 02:35:54;;;;;;;3.40;0.55;;;;;;;7.39;100.00;99448.66;5050193;28;20032;-62
2022/11/15 02:38:29;;;;;;;4.32;0.63;;;;;;;7.43;100.00;99444.63;5054694;28;20042;-62
2022/11/15 02:41:07;;;;;;;9.45;0.20;;;;;;;7.50;100.00;99445.47;5057687;28;20027;-62
2022/11/15 02:43:58;;;;;;;0.75;0.28;;;;;;;7.54;100.00;99438.81;5051405;28;20398;-61
2022/11/15 02:49:17;;;;;;;5.35;0.30;;;;;;;7.61;100.00;99434.34;5057217;28;20048;-57
2022/11/15 02:51:45;;;;;;;1.98;0.40;;;;;;;7.65;100.00;99422.41;5058034;28;20066;-62
2022/11/15 02:54:17;;;;;;;1.75;0.80;;;;;;;7.70;100.00;99418.38;5061637;28;20443;-60
2022/11/15 02:56:45;;;;;;;6.93;0.85;;;;;;;7.71;100.00;99399.69;5030948;28;20033;-61
2022/11/15 02:59:22;;;;;;;9.40;0.63;;;;;;;7.74;100.00;99395.84;5054616;28;20021;-62
2022/11/15 03:02:13;;;;;;;4.57;0.50;;;;;;;7.75;100.00;99384.28;5064081;28;20444;-62
2022/11/15 03:04:44;;;;;;;5.93;0.45;;;;;;;7.77;100.00;99371.69;5050947;28;20039;-62
2022/11/15 03:07:20;;;;;;;6.15;2.75;;;;;;;7.81;100.00;99372.91;5044379;28;20508;-62
2022/11/15 03:09:56;;;;;;;6.50;0.73;;;;;;;7.87;100.00;99366.84;5047663;28;20129;-62
2022/11/15 03:12:29;;;;;;;3.92;1.40;;;;;;;7.93;100.00;99358.13;5055707;28;20025;-63
2022/11/15 03:15:06;;;;;;;2.47;1.08;;;;;;;7.97;100.00;99361.97;5051525;28;20336;-62
2022/11/15 03:17:43;;;;;;;2.05;0.98;;;;;;;8.00;100.00;99361.59;5055593;28;20033;-61
2022/11/15 03:20:13;;;;;;;5.25;0.90;;;;;;;8.05;100.00;99360.97;5061386;28;20102;-62
2022/11/15 03:22:43;;;;;;;3.25;0.40;;;;;;;8.13;100.00;99352.03;5061390;28;20065;-61
2022/11/15 03:25:13;;;;;;;5.68;0.25;;;;;;;8.14;100.00;99345.75;5065803;28;20032;-62
2022/11/15 03:27:45;;;;;;;7.88;1.23;;;;;;;8.18;100.00;99336.41;5054428;28;20445;-62
2022/11/15 03:30:11;;;;;;;7.70;0.80;;;;;;;8.21;100.00;99331.53;5060307;28;20563;-62
2022/11/15 03:33:04;;;;;;;2.40;0.63;;;;;;;8.28;100.00;99332.34;5056396;28;20090;-62
2022/11/15 03:35:41;;;;;;;2.38;0.10;;;;;;;8.36;100.00;99333.16;5054304;28;20036;-61
2022/11/15 03:38:26;;;;;;;3.75;1.02;;;;;;;8.38;100.00;99329.28;5058008;28;20107;-59
2022/11/15 03:40:59;;;;;;;3.40;1.17;;;;;;;8.40;100.00;99331.75;5049799;28;20035;-62
2022/11/15 03:43:30;;;;;;;1.13;0.17;;;;;;;8.38;100.00;99321.38;5055156;28;20100;-59
2022/11/15 03:46:11;;;;;;;6.35;0.47;;;;;;;8.42;100.00;99324.44;5066911;28;20037;-62
2022/11/15 03:48:39;;;;;;;;;;;;;;;8.40;100.00;99315.91;5061391;28;20040;-60
2022/11/15 03:51:05;;;;;;;1.45;0.20;;;;;;;8.39;100.00;99316.88;5058817;28;20353;-61
2022/11/15 03:53:31;;;;;;;1.40;0.20;;;;;;;8.41;100.00;99320.97;5069370;28;20063;-60
2022/11/15 03:55:57;;;;;;;2.20;0.57;;;;;;;8.44;100.00;99317.94;5052757;28;20024;-62
2022/11/15 03:58:22;;;;;;;4.15;0.20;;;;;;;8.45;100.00;99311.63;5058438;28;20040;-63
2022/11/15 04:00:48;;;;;;;4.18;0.30;;;;;;;8.45;100.00;99300.25;5059101;28;20107;-61
2022/11/15 04:03:13;;;;;;;7.28;1.33;;;;;;;8.44;100.00;99293.34;5057502;28;20450;-62
2022/11/15 04:05:38;;;;;;;1.50;0.40;;;;;;;8.41;100.00;99284.00;5068370;28;20025;-62
2022/11/15 04:08:04;;;;;;;1.20;0.43;;;;;;;8.42;100.00;99275.06;5054653;28;20470;-61
2022/11/15 04:10:29;;;;;;;9.50;1.60;;;;;;;8.42;100.00;99274.28;5056307;28;20040;-62
2022/11/15 04:12:54;;;;;;;4.38;0.80;;;;;;;8.49;100.00;99264.47;5058696;28;20033;-63
2022/11/15 04:15:22;;;;;;;2.15;0.20;;;;;;;8.50;100.00;99266.13;5038687;28;20029;-62
2022/11/15 04:17:53;;;;;;;3.35;0.65;;;;;;;8.49;100.00;99260.03;5057921;28;20039;-62
2022/11/15 04:25:56;;;;;;;14.00;1.88;;;;;;;8.51;100.00;99252.69;5056667;28;20091;-61
2022/11/15 04:28:22;;;;;;;1.95;0.43;;;;;;;8.54;100.00;99246.16;5057297;28;20048;-60
2022/11/15 04:30:47;;;;;;;4.50;0.43;;;;;;;8.59;100.00;99248.19;5056144;28;20064;-62
2022/11/15 04:33:13;;;;;;;7.40;1.30;;;;;;;8.60;100.00;99237.44;5040825;28;20525;-62
2022/11/15 04:35:38;;;;;;;2.28;0.85;;;;;;;8.63;100.00;99238.84;5058798;28;20308;-62
2022/11/15 04:38:06;;;;;;;7.97;0.40;;;;;;;8.67;100.00;99232.09;5061529;28;20020;-60
2022/11/15 04:40:32;;;;;;;8.07;1.52;;;;;;;8.72;100.00;99237.59;5059395;28;20040;-59
2022/11/15 04:42:57;;;;;;;1.77;0.15;;;;;;;8.74;100.00;99236.34;5052260;28;20061;-61
2022/11/15 04:45:23;;;;;;;3.55;0.40;;;;;;;8.78;100.00;99214.78;5043201;28;20047;-61
2022/11/15 04:47:48;;;;;;;5.90;1.10;;;;;;;8.82;100.00;99222.09;5064180;28;20108;-62
2022/11/15 04:50:15;;;;;;;7.55;1.55;;;;;;;8.85;100.00;99207.66;5044445;28;20040;-62
2022/11/15 04:52:51;;;;;;;5.80;1.27;;;;;;;8.89;100.00;99206.22;5056445;28;20505;-61
2022/11/15 04:55:16;;;;;;;4.72;0.40;;;;;;;8.92;100.00;99211.88;5061949;28;20097;-62
2022/11/15 04:57:42;;;;;;;1.42;0.30;;;;;;;8.94;100.00;99209.03;5059513;28;20029;-59
2022/11/15 05:00:10;;;;;;;4.05;1.85;;;;;;;9.00;100.00;99216.09;5064593;28;20462;-59
2022/11/15 05:05:20;;;;;;;1.98;0.40;;;;;;;9.05;100.00;99212.84;5057382;28;20105;-62
2022/11/15 05:07:45;;;;;;;2.47;0.30;;;;;;;9.09;100.00;99206.13;5054973;28;20028;-60
2022/11/15 05:10:11;;;;;;;3.65;1.00;;;;;;;9.14;100.00;99201.00;5056396;28;20030;-62
2022/11/15 05:12:36;;;;;;;3.92;0.17;;;;;;;9.16;100.00;99197.13;5060153;28;20071;-62
2022/11/15 05:15:02;;;;;;;8.27;2.33;;;;;;;9.17;100.00;99193.44;5056315;28;20024;-61
2022/11/15 05:17:28;;;;;;;4.13;1.10;;;;;;;9.18;100.00;99188.97;5054656;28;20021;-62
2022/11/15 05:19:53;;;;;;;3.25;0.57;;;;;;;9.21;100.00;99172.66;5052385;28;20036;-61
2022/11/15 05:22:19;;;;;;;3.10;0.43;;;;;;;9.23;100.00;99159.22;5058443;28;20036;-61
2022/11/15 05:24:44;;;;;;;3.65;0.52;;;;;;;9.21;100.00;99156.78;5052185;28;20107;-59
2022/11/15 05:27:10;;;;;;;6.00;1.30;;;;;;;9.27;100.00;99145.38;5051883;28;20910;-61
2022/11/15 05:29:35;;;;;;;4.90;0.43;;;;;;;9.32;100.00;99132.31;5056610;28;20145;-57
2022/11/15 05:32:00;;;;;;;7.93;0.50;;;;;;;9.36;100.00;99133.47;5057636;28;20036;-62
2022/11/15 05:34:26;;;;;;;6.25;1.38;;;;;;;9.37;100.00;99123.69;5052188;28;20115;-57
2022/11/15 05:36:52;;;;;;;2.13;0.10;;;;;;;9.38;100.00;99120.84;5055242;28;20108;-61
2022/11/15 05:39:17;;;;;;;3.50;0.25;;;;;;;9.39;100.00;99111.88;5037392;28;20039;-62
2022/11/15 05:41:48;;;;;;;1.73;0.20;;;;;;;9.45;100.00;99114.69;5057294;28;20454;-60
2022/11/15 05:44:17;;;;;;;5.10;1.23;;;;;;;9.49;100.00;99111.41;5056748;28;20029;-62
2022/11/15 05:46:43;;;;;;;3.10;1.40;;;;;;;9.51;100.00;99098.75;5053552;28;20032;-61
2022/11/15 05:49:13;;;;;;;2.20;0.98;;;;;;;9.56;100.00;99098.94;5066998;28;20062;-62
2022/11/15 05:51:41;;;;;;;3.00;0.52;;;;;;;9.59;100.00;99093.19;5061357;28;20035;-61
2022/11/15 05:54:06;;;;;;;7.55;0.45;;;;;;;9.60;100.00;99091.34;5038830;28;20058;-63
2022/11/15 05:56:32;;;;;;;8.10;1.42;;;;;;;9.66;100.00;99087.03;5056006;28;20466;-63
2022/11/15 05:58:58;;;;;;;3.33;0.77;;;;;;;9.67;100.00;99078.88;5035876;28;20028;-59
2022/11/15 06:01:26;;;;;;;5.90;1.23;;;;;;;9.71;100.00;99073.97;5055714;28;20024;-59
2022/11/15 06:03:51;;;;;;;1.35;0.43;;;;;;;9.71;100.00;99066.81;5051978;28;20033;-61
2022/11/15 06:06:16;;;;;;;9.50;1.33;;;;;;;9.74;100.00;99068.22;5062571;28;20033;-58
2022/11/15 06:08:42;;;;;;;1.90;0.22;;;;;;;9.78;100.00;99069.38;5052313;28;20082;-58
2022/11/15 06:11:07;;;;;;;6.50;2.25;;;;;;;9.79;100.00;99063.06;5044630;28;20406;-62
2022/11/15 06:13:33;;;;;;;3.85;1.02;;;;;;;9.78;100.00;99072.03;5057866;28;20041;-60
2022/11/15 06:15:59;;;;;;;5.50;0.20;;;;;;;9.78;100.00;99067.56;5042668;28;20089;-60
2022/11/15 06:18:24;;;;;;;6.57;1.45;;;;;;;9.75;100.00;99067.97;5055392;28;20496;-59
2022/11/15 06:20:49;;;;;;;8.02;1.65;;;;;;;9.76;100.00;99059.03;5053762;28;20033;-61
2022/11/15 06:23:15;;;;;;;6.13;1.15;;;;;;;9.73;100.00;99061.28;5058237;28;20090;-62
2022/11/15 06:25:40;;;;;;;8.82;0.22;;;;;;;9.70;100.00;99053.78;5057523;28;20589;-62
2022/11/15 06:28:06;;;;;;;6.43;0.90;;;;;;;9.66;100.00;99056.09;5047099;28;20481;-63
2022/11/15 06:30:31;;;;;;;9.68;3.42;;;;;;;9.67;100.00;99052.41;5053871;28;20398;-60
2022/11/15 06:33:04;;;;;;;1.73;0.40;;;;;;;9.67;100.00;99055.03;5064035;28;20068;-62
2022/11/15 06:35:32;;;;;;;10.32;1.50;;;;;;;9.66;100.00;99052.63;5055061;28;20033;-61
2022/11/15 06:38:03;;;;;;;7.60;0.75;;;;;;;9.67;100.00;99049.75;5059392;28;20033;-62
2022/11/15 06:40:28;;;;;;;4.47;0.30;;;;;;;9.66;100.00;99050.78;5054558;28;20059;-62
2022/11/15 06:42:59;;;;;;;2.60;0.90;;;;;;;9.70;100.00;99046.66;5051046;28;20064;-61
2022/11/15 06:45:24;;;;;;;3.15;0.47;;;;;;;9.67;100.00;99036.53;5058088;28;20028;-57
2022/11/15 06:47:49;;;;;;;2.55;0.10;;;;;;;9.70;100.00;99049.31;5051668;28;20032;-60
2022/11/15 06:50:15;;;;;;;5.82;0.22;;;;;;;9.69;100.00;99047.69;5056120;28;20029;-56
2022/11/15 06:52:40;;;;;;;1.50;0.10;;;;;;;9.69;100.00;99042.41;5053574;28;20039;-60
2022/11/15 06:55:06;;;;;;;1.60;0.82;;;;;;;9.69;100.00;99029.19;5054910;28;20071;-61
2022/11/15 06:57:32;;;;;;;4.00;0.60;;;;;;;9.69;100.00;99044.25;5056939;28;20052;-62
2022/11/15 06:59:57;;;;;;;2.55;0.57;;;;;;;9.70;100.00;99027.34;5061842;28;20056;-54
2022/11/15 07:02:22;;;;;;;0.47;0.10;;;;;;;9.69;100.00;99031.81;5054598;28;20199;-56
2022/11/15 07:04:48;;;;;;;1.98;0.65;;;;;;;9.72;100.00;99023.44;5057765;28;20028;-62
2022/11/15 07:07:13;;;;;;;2.55;0.43;;;;;;;9.68;100.00;99024.94;5035212;28;20025;-63
2022/11/15 07:09:38;;;;;;;0.90;0.38;;;;;;;9.67;100.00;99028.59;5053175;28;20029;-60
2022/11/15 07:12:04;;;;;;;0.95;0.20;;;;;;;9.71;100.00;99013.09;5055236;28;20291;-63
2022/11/15 07:14:30;;;;;;;5.88;0.75;;;;;;;9.70;100.00;99017.56;5053801;28;20040;-63
2022/11/15 07:16:55;;;;;;;3.92;0.65;;;;;;;9.70;100.00;99019.41;5054835;28;20476;-60
2022/11/15 07:19:20;;;;;;;3.17;0.80;;;;;;;9.70;100.00;99009.59;5051099;28;20032;-61
2022/11/15 07:21:46;;;;;;;2.13;0.08;;;;;;;9.75;100.00;99014.25;5054439;28;20032;-62
2022/11/15 07:24:12;;;;;;;1.65;0.35;;;;;;;9.76;100.00;99018.53;5049292;28;20048;-61
2022/11/15 07:26:37;;;;;;;2.13;0.20;;;;;;;9.77;100.00;99015.66;5058885;28;20028;-62
2022/11/15 07:29:02;;;;;;;2.72;0.52;;;;;;;9.77;100.00;99023.59;5063289;28;20044;-60
2022/11/15 07:31:28;;;;;;;1.30;0.15;;;;;;;9.80;100.00;99022.34;5053011;28;20079;-61
2022/11/15 07:33:53;;;;;;;0.75;0.20;;;;;;;9.79;100.00;99023.38;5053638;28;20060;-63
2022/11/15 07:36:18;;;;;;;1.35;0.20;;;;;;;9.81;100.00;99022.13;5054238;28;20033;-61
2022/11/15 07:38:44;;;;;;;1.05;0.15;;;;;;;9.83;100.00;99024.53;5050074;28;20033;-62
2022/11/15 07:41:10;;;;;;;2.42;0.77;;;;;;;9.85;100.00;99021.69;5057327;28;20036;-61
2022/11/15 07:43:35;;;;;;;3.72;0.00;;;;;;;9.85;100.00;99017.19;5053854;28;20482;-63
2022/11/15 07:46:11;;;;;;;0.65;0.00;;;;;;;9.86;100.00;99028.56;5036595;28;20074;-62
2022/11/15 07:48:39;;;;;;;0.95;0.35;;;;;;;9.83;100.00;99014.78;5051567;28;20041;-62
2022/11/15 07:51:05;;;;;;;0.52;0.05;;;;;;;9.85;100.00;99022.47;5048724;28;20126;-61
2022/11/15 07:53:31;;;;;;;3.83;0.75;;;;;;;9.86;100.00;99015.34;5055673;28;20107;-63
2022/11/15 07:55:56;;;;;;;1.13;0.03;;;;;;;9.83;100.00;99014.78;5051053;28;20103;-62
2022/11/15 07:58:22;;;;;;;0.68;0.00;;;;;;;9.89;100.00;99017.56;5052017;28;20402;-63
2022/11/15 08:00:47;;;;;;;0.32;0.00;;;;;;;9.89;100.00;99013.06;5052600;28;20029;-63
2022/11/15 08:03:14;;;;;;;0.32;0.00;;;;;;;9.92;100.00;99011.81;5056129;28;20024;-59
2022/11/15 08:05:41;;;;;;;1.75;0.20;;;;;;;9.93;100.00;99008.13;5056950;28;20425;-63
2022/11/15 08:08:09;;;;;;;0.43;0.10;;;;;;;9.95;100.00;99014.03;5060124;28;20058;-62
2022/11/15 08:10:35;;;;;;;1.50;0.10;;;;;;;9.94;100.00;99015.03;5057375;28;20035;-62
2022/11/15 08:13:05;;;;;;;0.00;0.00;;;;;;;9.95;100.00;99009.53;5050291;28;20545;-61
2022/11/15 08:15:31;;;;;;;0.00;0.00;;;;;;;9.94;100.00;99007.91;5058787;28;20033;-58
2022/11/15 08:17:59;;;;;;;3.63;0.00;;;;;;;9.98;100.00;99014.38;5063327;28;20024;-63
2022/11/15 08:20:29;;;;;;;0.45;0.00;;;;;;;9.99;100.00;99010.72;5054994;28;20025;-61
2022/11/15 08:22:55;;;;;;;2.20;0.17;;;;;;;9.98;100.00;99006.44;5051606;28;20033;-62
2022/11/15 08:25:20;;;;;;;0.22;0.00;;;;;;;9.99;100.00;99007.22;5061311;28;20086;-61
2022/11/15 08:27:46;;;;;;;1.13;0.10;;;;;;;10.00;100.00;99006.22;5060440;28;20465;-62
2022/11/15 08:30:11;;;;;;;0.00;0.00;;;;;;;10.02;100.00;99010.25;5057423;28;20494;-54
2022/11/15 08:32:37;;;;;;;0.30;0.00;;;;;;;10.02;100.00;99001.50;5064515;28;20079;-61
2022/11/15 08:35:03;;;;;;;1.85;0.75;;;;;;;10.03;100.00;98993.31;5058133;28;20070;-61
2022/11/15 08:37:28;;;;;;;0.95;0.20;;;;;;;10.03;100.00;99001.28;5061992;28;20462;-63
2022/11/15 08:39:53;;;;;;;0.25;0.00;;;;;;;10.03;100.00;98992.53;5054539;28;20477;-63
2022/11/15 08:42:19;;;;;;;0.70;0.00;;;;;;;10.05;100.00;98993.91;5059959;28;20112;-60
2022/11/15 08:44:44;;;;;;;0.32;0.00;;;;;;;10.07;100.00;98992.88;5056426;28;20027;-62
2022/11/15 08:47:11;;;;;;;0.25;0.00;;;;;;;10.06;100.00;98984.13;5063633;28;20029;-64
2022/11/15 08:49:37;;;;;;;0.10;0.10;;;;;;;10.09;100.00;98988.16;5066524;28;20067;-64
2022/11/15 08:52:02;;;;;;;0.10;0.00;;;;;;;10.09;100.00;98983.69;5056110;28;20060;-63
2022/11/15 08:54:28;;;;;;;1.65;0.00;;;;;;;10.11;100.00;98965.72;5061056;28;20029;-64
2022/11/15 08:56:53;;;;;;;0.25;0.00;;;;;;;10.14;100.00;98975.06;5060328;28;20386;-63
2022/11/15 08:59:19;;;;;;;0.55;0.00;;;;;;;10.14;100.00;98962.63;5037749;28;20502;-65
2022/11/15 09:01:44;;;;;;;7.53;1.55;;;;;;;10.18;100.00;98957.69;5048981;28;20075;-63
2022/11/15 09:04:09;;;;;;;0.35;0.03;;;;;;;10.20;100.00;98964.38;5055652;28;20029;-65
2022/11/15 09:06:35;;;;;;;0.00;0.00;;;;;;;10.20;100.00;98953.78;5056883;28;20481;-65
2022/11/15 09:09:01;;;;;;;0.20;0.00;;;;;;;10.23;100.00;98949.88;5062004;28;20024;-65
2022/11/15 09:11:26;;;;;;;0.17;0.00;;;;;;;10.25;100.00;98948.63;5056884;28;20054;-66
2022/11/15 09:13:52;;;;;;;0.17;0.00;;;;;;;10.28;100.00;98949.25;5056326;28;20028;-64
2022/11/15 09:16:17;;;;;;;0.10;0.00;;;;;;;10.28;100.00;98938.66;5053767;28;20075;-64
2022/11/15 09:18:43;;;;;;;0.75;0.00;;;;;;;10.29;100.00;98930.47;5059285;28;20086;-65
2022/11/15 09:21:09;;;;;;;1.90;0.10;;;;;;;10.29;100.00;98922.50;5066741;28;20051;-62
2022/11/15 09:23:34;;;;;;;0.63;0.00;;;;;;;10.31;100.00;98928.41;5053996;28;20120;-63
2022/11/15 09:26:02;;;;;;;1.65;0.00;;;;;;;10.34;100.00;98927.13;5045205;28;20430;-61
2022/11/15 09:28:28;;;;;;;0.45;0.28;;;;;;;10.34;100.00;98919.19;5056014;28;20052;-65
2022/11/15 09:31:05;;;;;;;3.10;0.00;;;;;;;10.37;100.00;98919.53;5045616;28;20028;-63
2022/11/15 09:33:31;;;;;;;0.95;0.20;;;;;;;10.36;100.00;98925.06;5054381;28;20063;-64
2022/11/15 09:36:04;;;;;;;1.75;0.00;;;;;;;10.39;100.00;98917.47;5067609;28;20056;-62
2022/11/15 09:38:31;;;;;;;1.20;0.00;;;;;;;10.38;100.00;98907.91;5062468;28;20041;-64
2022/11/15 09:41:13;;;;;;;1.35;0.40;;;;;;;10.43;100.00;98909.88;5061655;28;20028;-65
2022/11/15 09:43:55;;;;;;;0.10;0.00;;;;;;;10.45;100.00;98905.16;5055966;28;20029;-64
2022/11/15 09:46:39;;;;;;;0.17;0.00;;;;;;;10.43;100.00;98900.09;5058491;28;20500;-62
2022/11/15 09:49:06;;;;;;;1.55;0.70;;;;;;;10.47;100.00;98901.22;5039299;28;20044;-65
2022/11/15 09:51:47;;;;;;;0.85;0.10;;;;;;;10.50;100.00;98893.88;5058264;28;20032;-64
2022/11/15 09:54:27;;;;;;;0.15;0.00;;;;;;;10.49;100.00;98890.41;5056836;28;20016;-64
2022/11/15 09:56:56;;;;;;;0.47;0.00;;;;;;;10.50;100.00;98884.06;5068774;28;20036;-64
2022/11/15 10:00:13;;;;;;;0.77;0.10;;;;;;;10.53;100.00;98885.44;5052932;28;20496;-65
2022/11/15 10:03:09;;;;;;;1.05;0.05;;;;;;;10.57;100.00;98886.63;5007498;28;20060;-65
2022/11/15 10:05:46;;;;;;;1.95;0.00;;;;;;;10.59;100.00;98893.31;5057805;28;20097;-64
2022/11/15 10:08:36;;;;;;;0.80;0.47;;;;;;;10.61;100.00;98883.28;5067944;28;20036;-65
2022/11/15 10:11:05;;;;;;;0.55;0.00;;;;;;;10.62;100.00;98876.13;5057659;28;20055;-60
2022/11/15 10:13:34;;;;;;;0.15;0.00;;;;;;;10.63;100.00;98883.03;5063168;28;20500;-64
2022/11/15 10:16:05;;;;;;;0.35;0.00;;;;;;;10.65;100.00;98867.72;5055477;28;20052;-57
2022/11/15 10:18:35;;;;;;;0.50;0.43;;;;;;;10.63;100.00;98867.13;5053457;28;20512;-65
2022/11/15 10:21:22;;;;;;;0.70;0.08;;;;;;;10.63;100.00;98865.28;5056241;28;20048;-63
2022/11/15 10:23:48;;;;;;;0.13;0.00;;;;;;;10.61;100.00;98851.47;5046002;28;20131;-63
2022/11/15 10:26:16;;;;;;;0.00;0.00;;;;;;;10.64;100.00;98843.06;5061133;28;20028;-65
2022/11/15 10:28:41;;;;;;;0.00;0.00;;;;;;;10.63;100.00;98841.44;5057684;28;20061;-65
2022/11/15 10:31:25;;;;;;;0.28;0.00;;;;;;;10.65;100.00;98823.47;5070869;28;20021;-65
2022/11/15 10:33:58;;;;;;;1.50;0.32;;;;;;;10.66;100.00;98819.78;5059938;28;20028;-62
2022/11/15 10:36:25;;;;;;;1.00;0.00;;;;;;;10.65;100.00;98818.16;5041166;28;20508;-64
2022/11/15 10:38:50;;;;;;;3.97;0.10;;;;;;;10.65;100.00;98807.56;5059440;28;20037;-64
2022/11/15 10:41:29;;;;;;;0.30;0.30;;;;;;;10.68;100.00;98791.19;5051567;28;20029;-64
2022/11/15 10:44:06;;;;;;;4.18;0.45;;;;;;;10.69;100.00;98798.13;5056925;28;20040;-62
2022/11/15 10:46:36;;;;;;;1.85;0.00;;;;;;;10.69;100.00;98779.56;5052904;28;20090;-64
2022/11/15 10:49:13;;;;;;;1.27;0.10;;;;;;;10.73;100.00;98779.09;5061713;28;20020;-63
2022/11/15 10:51:47;;;;;;;0.25;0.22;;;;;;;10.74;100.00;98770.09;5055183;28;20470;-64
2022/11/15 10:54:22;;;;;;;0.45;0.00;;;;;;;10.74;100.00;98772.75;5056062;28;20066;-64
2022/11/15 10:56:54;;;;;;;0.20;0.00;;;;;;;10.75;100.00;98763.75;5065294;28;20462;-64
2022/11/15 10:59:30;;;;;;;0.52;0.00;;;;;;;10.75;100.00;98763.75;5053207;28;20032;-61
2022/11/15 11:01:56;;;;;;;0.25;0.13;;;;;;;10.73;100.00;98763.19;5062275;28;20020;-62
2022/11/15 11:04:21;;;;;;;0.15;0.15;;;;;;;10.74;100.00;98756.84;5063489;28;20036;-63
2022/11/15 11:06:50;;;;;;;0.05;0.00;;;;;;;10.77;100.00;98756.38;5057882;28;20032;-63
2022/11/15 11:09:34;;;;;;;1.60;0.00;;;;;;;10.79;100.00;98755.13;5053974;28;20158;-65
2022/11/15 11:12:00;;;;;;;4.18;0.45;;;;;;;10.79;100.00;98741.84;5063944;28;20033;-56
2022/11/15 11:14:32;;;;;;;0.38;0.00;;;;;;;10.79;100.00;98748.97;5063739;28;20100;-65
2022/11/15 11:17:21;;;;;;;2.20;0.20;;;;;;;10.81;100.00;98741.59;5062490;28;20033;-62
2022/11/15 11:19:53;;;;;;;0.20;0.00;;;;;;;10.79;100.00;98741.03;5061534;28;20029;-62
2022/11/15 11:22:35;;;;;;;1.67;0.10;;;;;;;10.81;100.00;98726.50;5055430;28;20063;-61
2022/11/15 11:25:16;;;;;;;0.50;0.00;;;;;;;10.82;100.00;98730.78;5053723;28;20500;-64
2022/11/15 11:27:56;;;;;;;0.28;0.00;;;;;;;10.82;100.00;98722.03;5059948;28;20079;-64
2022/11/15 11:30:37;;;;;;;0.10;0.00;;;;;;;10.84;100.00;98709.31;5057725;28;20405;-63
2022/11/15 11:33:12;;;;;;;0.55;0.10;;;;;;;10.85;100.00;98698.50;5056332;28;20040;-66
2022/11/15 11:35:49;;;;;;;0.15;0.00;;;;;;;10.86;100.00;98691.34;5060183;28;20075;-63
2022/11/15 11:38:29;;;;;;;1.02;0.00;;;;;;;10.87;100.00;98692.97;5059041;28;20028;-65
2022/11/15 11:41:16;;;;;;;0.00;0.00;;;;;;;10.87;100.00;98691.09;5051582;28;20075;-64
2022/11/15 11:43:51;;;;;;;2.38;0.00;;;;;;;10.87;100.00;98677.06;5058921;28;20382;-65
2022/11/15 11:46:16;;;;;;;0.00;0.00;;;;;;;10.89;100.00;98677.59;5057918;28;20032;-65
2022/11/15 11:48:44;;;;;;;1.95;0.10;;;;;;;10.91;100.00;98667.56;5068106;28;20033;-62
2022/11/15 11:51:18;;;;;;;0.25;0.10;;;;;;;10.94;100.00;98671.59;5057555;28;20031;-62
2022/11/15 11:53:58;;;;;;;2.25;0.05;;;;;;;10.96;100.00;98658.91;5068249;28;20032;-63